This is the latest recevied weather packets stored in our database for station/object KI4HRG. If no packets are shown the sender has not sent any weather packets the latest 10 day(s).
| Time | Temp. | Humidity | Pressure | Rain* | Wind** | Luminosity | Snow |
|---|---|---|---|---|---|---|---|
| 1787771642 | 35° C | 49% | 1014.8 hPa | 0 mm | - | 316 W/m² | - |
| 1787771337 | 33.89° C | 52% | 1014.9 hPa | 0 mm | - | 668 W/m² | - |
| 1787771032 | 33.89° C | 52% | 1014.9 hPa | 0 mm | - | 438 W/m² | - |
| 1787770730 | 34.44° C | 51% | 1015 hPa | 0 mm | - | 623 W/m² | - |
| 1787770426 | 33.89° C | 53% | 1015 hPa | 0 mm | - | 707 W/m² | - |
| 1787770124 | 33.33° C | 53% | 1015.3 hPa | 0 mm | - | 692 W/m² | - |
| 1787769823 | 33.89° C | 52% | 1015.1 hPa | 0 mm | - | 695 W/m² | - |
| 1787769518 | 33.89° C | 52% | 1015.3 hPa | 0 mm | - | 657 W/m² | - |
| 1787769218 | 33.89° C | 51% | 1015.3 hPa | 0 mm | - | 305 W/m² | - |
| 1787768912 | 33.89° C | 51% | 1015.3 hPa | 0 mm | - | 556 W/m² | - |
| 1787768608 | 33.89° C | 53% | 1015.5 hPa | 0 mm | - | 645 W/m² | - |
| 1787768305 | 33.33° C | 53% | 1015.8 hPa | 0 mm | - | 398 W/m² | - |
| 1787768001 | 32.78° C | 54% | 1016 hPa | 0 mm | - | 611 W/m² | - |
| 1787767695 | 33.33° C | 54% | 1016.1 hPa | 0 mm | - | 296 W/m² | - |
| 1787767395 | 33.33° C | 52% | 1016.2 hPa | 0 mm | - | 289 W/m² | - |
| 1787767093 | 32.78° C | 54% | 1016.4 hPa | 0 mm | - | 315 W/m² | - |
| 1787766792 | 33.33° C | 52% | 1016.3 hPa | 0 mm | - | 288 W/m² | - |
| 1787766491 | 33.33° C | 52% | 1016.6 hPa | 0 mm | - | 290 W/m² | - |
| 1787766186 | 33.33° C | 52% | 1016.7 hPa | 0 mm | - | 331 W/m² | - |
| 1787765881 | 33.89° C | 50% | 1016.7 hPa | 0 mm | - | 733 W/m² | - |
| 1787765578 | 33.33° C | 53% | 1016.9 hPa | 0 mm | - | 286 W/m² | - |
| 1787765277 | 32.78° C | 53% | 1016.9 hPa | 0 mm | - | 314 W/m² | - |
| 1787764977 | 32.78° C | 54% | 1017 hPa | 0 mm | - | 353 W/m² | - |
| 1787764673 | 33.33° C | 53% | 1017.1 hPa | 0 mm | - | 308 W/m² | - |
| 1787764367 | 33.33° C | 53% | 1017 hPa | 0 mm | - | 341 W/m² | - |
* Rain latest hour (hover to see other rain measurements)
** Current wind speed in m/s (hover to see current wind gust speed)